sensor_id;sensor_type;location;lat;lon;timestamp;P1;durP1;ratioP1;P2;durP2;ratioP2
13204;SDS011;6667;52.634;9.226;2024-02-21T00:02:19;23.23;;;11.63;;
13204;SDS011;6667;52.634;9.226;2024-02-21T00:04:46;27.77;;;12.43;;
13204;SDS011;6667;52.634;9.226;2024-02-21T00:07:13;24.77;;;11.37;;
13204;SDS011;6667;52.634;9.226;2024-02-21T00:09:39;24.60;;;12.73;;
13204;SDS011;6667;52.634;9.226;2024-02-21T00:12:06;20.17;;;11.13;;
13204;SDS011;6667;52.634;9.226;2024-02-21T00:14:33;20.53;;;11.27;;
13204;SDS011;6667;52.634;9.226;2024-02-21T00:17:01;25.80;;;12.10;;
13204;SDS011;6667;52.634;9.226;2024-02-21T00:19:28;23.10;;;11.90;;
13204;SDS011;6667;52.634;9.226;2024-02-21T00:21:55;24.77;;;12.53;;
13204;SDS011;6667;52.634;9.226;2024-02-21T00:24:21;27.33;;;13.50;;
13204;SDS011;6667;52.634;9.226;2024-02-21T00:26:48;24.47;;;12.77;;
13204;SDS011;6667;52.634;9.226;2024-02-21T00:29:14;23.13;;;13.83;;
13204;SDS011;6667;52.634;9.226;2024-02-21T00:31:41;23.67;;;11.33;;
13204;SDS011;6667;52.634;9.226;2024-02-21T00:34:11;29.07;;;12.73;;
13204;SDS011;6667;52.634;9.226;2024-02-21T00:36:38;26.03;;;12.67;;
13204;SDS011;6667;52.634;9.226;2024-02-21T00:39:05;23.97;;;11.93;;
13204;SDS011;6667;52.634;9.226;2024-02-21T00:41:31;26.07;;;12.67;;
13204;SDS011;6667;52.634;9.226;2024-02-21T00:43:58;21.27;;;12.73;;
13204;SDS011;6667;52.634;9.226;2024-02-21T00:46:24;24.30;;;13.00;;
13204;SDS011;6667;52.634;9.226;2024-02-21T00:48:51;26.53;;;12.23;;
13204;SDS011;6667;52.634;9.226;2024-02-21T00:51:19;23.33;;;12.33;;
13204;SDS011;6667;52.634;9.226;2024-02-21T00:53:46;26.83;;;11.70;;
13204;SDS011;6667;52.634;9.226;2024-02-21T00:56:12;28.80;;;12.83;;
13204;SDS011;6667;52.634;9.226;2024-02-21T00:58:39;25.10;;;13.07;;
13204;SDS011;6667;52.634;9.226;2024-02-21T01:01:05;22.97;;;12.63;;
13204;SDS011;6667;52.634;9.226;2024-02-21T01:03:32;25.43;;;11.10;;
13204;SDS011;6667;52.634;9.226;2024-02-21T01:05:59;26.60;;;13.53;;
13204;SDS011;6667;52.634;9.226;2024-02-21T01:08:26;26.87;;;12.93;;
13204;SDS011;6667;52.634;9.226;2024-02-21T01:10:53;27.57;;;13.00;;
13204;SDS011;6667;52.634;9.226;2024-02-21T01:13:20;28.20;;;13.77;;
13204;SDS011;6667;52.634;9.226;2024-02-21T01:15:46;23.53;;;12.67;;
13204;SDS011;6667;52.634;9.226;2024-02-21T01:18:13;23.53;;;12.40;;
13204;SDS011;6667;52.634;9.226;2024-02-21T01:20:40;26.07;;;12.23;;
13204;SDS011;6667;52.634;9.226;2024-02-21T01:23:06;27.33;;;12.47;;
13204;SDS011;6667;52.634;9.226;2024-02-21T01:25:34;23.57;;;13.20;;
13204;SDS011;6667;52.634;9.226;2024-02-21T01:28:01;26.93;;;13.80;;
13204;SDS011;6667;52.634;9.226;2024-02-21T01:30:28;26.37;;;13.57;;
13204;SDS011;6667;52.634;9.226;2024-02-21T01:32:55;21.83;;;11.43;;
13204;SDS011;6667;52.634;9.226;2024-02-21T01:35:22;29.73;;;13.90;;
13204;SDS011;6667;52.634;9.226;2024-02-21T01:37:48;28.70;;;13.73;;
13204;SDS011;6667;52.634;9.226;2024-02-21T01:40:16;30.30;;;14.43;;
13204;SDS011;6667;52.634;9.226;2024-02-21T01:42:44;31.63;;;14.47;;
13204;SDS011;6667;52.634;9.226;2024-02-21T01:45:12;24.37;;;14.27;;
13204;SDS011;6667;52.634;9.226;2024-02-21T01:47:39;33.00;;;14.13;;
13204;SDS011;6667;52.634;9.226;2024-02-21T01:50:06;29.40;;;14.47;;
13204;SDS011;6667;52.634;9.226;2024-02-21T01:52:33;27.57;;;13.87;;
13204;SDS011;6667;52.634;9.226;2024-02-21T01:55:01;23.83;;;13.53;;
13204;SDS011;6667;52.634;9.226;2024-02-21T01:57:28;25.53;;;13.40;;
13204;SDS011;6667;52.634;9.226;2024-02-21T01:59:56;26.67;;;13.13;;
13204;SDS011;6667;52.634;9.226;2024-02-21T02:02:23;29.27;;;13.70;;
13204;SDS011;6667;52.634;9.226;2024-02-21T02:04:50;26.80;;;13.87;;
13204;SDS011;6667;52.634;9.226;2024-02-21T02:07:18;28.00;;;13.20;;
13204;SDS011;6667;52.634;9.226;2024-02-21T02:09:45;25.57;;;13.63;;
13204;SDS011;6667;52.634;9.226;2024-02-21T02:12:11;24.07;;;12.87;;
13204;SDS011;6667;52.634;9.226;2024-02-21T02:14:38;26.87;;;13.63;;
13204;SDS011;6667;52.634;9.226;2024-02-21T02:17:06;28.87;;;13.90;;
13204;SDS011;6667;52.634;9.226;2024-02-21T02:19:34;27.47;;;14.17;;
13204;SDS011;6667;52.634;9.226;2024-02-21T02:22:02;27.73;;;13.00;;
13204;SDS011;6667;52.634;9.226;2024-02-21T02:24:36;26.33;;;14.17;;
13204;SDS011;6667;52.634;9.226;2024-02-21T02:27:03;30.07;;;14.97;;
13204;SDS011;6667;52.634;9.226;2024-02-21T02:29:31;23.23;;;13.43;;
13204;SDS011;6667;52.634;9.226;2024-02-21T02:31:58;30.73;;;14.07;;
13204;SDS011;6667;52.634;9.226;2024-02-21T02:34:24;33.00;;;14.73;;
13204;SDS011;6667;52.634;9.226;2024-02-21T02:36:51;26.40;;;13.53;;
13204;SDS011;6667;52.634;9.226;2024-02-21T02:39:19;33.77;;;15.00;;
13204;SDS011;6667;52.634;9.226;2024-02-21T02:41:47;28.73;;;13.87;;
13204;SDS011;6667;52.634;9.226;2024-02-21T02:44:14;28.00;;;14.73;;
13204;SDS011;6667;52.634;9.226;2024-02-21T02:46:41;25.43;;;13.93;;
13204;SDS011;6667;52.634;9.226;2024-02-21T02:49:07;30.27;;;14.50;;
13204;SDS011;6667;52.634;9.226;2024-02-21T02:51:34;27.03;;;13.87;;
13204;SDS011;6667;52.634;9.226;2024-02-21T02:54:01;26.43;;;14.17;;
13204;SDS011;6667;52.634;9.226;2024-02-21T02:56:28;26.43;;;14.73;;
13204;SDS011;6667;52.634;9.226;2024-02-21T02:58:56;27.23;;;14.53;;
13204;SDS011;6667;52.634;9.226;2024-02-21T03:01:23;28.83;;;15.97;;
13204;SDS011;6667;52.634;9.226;2024-02-21T03:03:49;25.73;;;14.07;;
13204;SDS011;6667;52.634;9.226;2024-02-21T03:06:16;23.13;;;13.70;;
13204;SDS011;6667;52.634;9.226;2024-02-21T03:08:42;24.20;;;14.53;;
13204;SDS011;6667;52.634;9.226;2024-02-21T03:11:09;27.70;;;14.43;;
13204;SDS011;6667;52.634;9.226;2024-02-21T03:13:36;23.63;;;15.37;;
13204;SDS011;6667;52.634;9.226;2024-02-21T03:16:04;22.57;;;14.23;;
13204;SDS011;6667;52.634;9.226;2024-02-21T03:18:31;26.00;;;13.53;;
13204;SDS011;6667;52.634;9.226;2024-02-21T03:20:58;27.30;;;14.90;;
13204;SDS011;6667;52.634;9.226;2024-02-21T03:23:24;30.47;;;15.10;;
13204;SDS011;6667;52.634;9.226;2024-02-21T03:25:51;24.87;;;14.90;;
13204;SDS011;6667;52.634;9.226;2024-02-21T03:28:18;24.67;;;14.07;;
13204;SDS011;6667;52.634;9.226;2024-02-21T03:30:44;20.40;;;12.67;;
13204;SDS011;6667;52.634;9.226;2024-02-21T03:33:12;29.80;;;14.30;;
13204;SDS011;6667;52.634;9.226;2024-02-21T03:35:39;24.00;;;15.27;;
13204;SDS011;6667;52.634;9.226;2024-02-21T03:38:05;31.00;;;15.63;;
13204;SDS011;6667;52.634;9.226;2024-02-21T03:40:32;25.13;;;13.10;;
13204;SDS011;6667;52.634;9.226;2024-02-21T03:42:58;19.77;;;12.20;;
13204;SDS011;6667;52.634;9.226;2024-02-21T03:45:25;24.40;;;14.50;;
13204;SDS011;6667;52.634;9.226;2024-02-21T03:47:52;27.13;;;14.47;;
13204;SDS011;6667;52.634;9.226;2024-02-21T03:50:20;24.17;;;14.27;;
13204;SDS011;6667;52.634;9.226;2024-02-21T03:52:46;26.43;;;15.27;;
13204;SDS011;6667;52.634;9.226;2024-02-21T03:55:13;29.10;;;14.80;;
13204;SDS011;6667;52.634;9.226;2024-02-21T03:57:39;31.43;;;13.67;;
13204;SDS011;6667;52.634;9.226;2024-02-21T04:00:06;22.83;;;12.80;;
13204;SDS011;6667;52.634;9.226;2024-02-21T04:02:36;28.63;;;14.93;;
13204;SDS011;6667;52.634;9.226;2024-02-21T04:05:03;25.20;;;14.07;;
13204;SDS011;6667;52.634;9.226;2024-02-21T04:07:32;26.93;;;13.87;;
13204;SDS011;6667;52.634;9.226;2024-02-21T04:09:58;27.77;;;15.90;;
13204;SDS011;6667;52.634;9.226;2024-02-21T04:12:25;28.30;;;14.70;;
13204;SDS011;6667;52.634;9.226;2024-02-21T04:14:52;30.00;;;14.80;;
13204;SDS011;6667;52.634;9.226;2024-02-21T04:17:18;24.07;;;14.17;;
13204;SDS011;6667;52.634;9.226;2024-02-21T04:19:45;21.93;;;12.70;;
13204;SDS011;6667;52.634;9.226;2024-02-21T04:22:11;26.23;;;14.30;;
13204;SDS011;6667;52.634;9.226;2024-02-21T04:24:39;30.07;;;15.90;;
13204;SDS011;6667;52.634;9.226;2024-02-21T04:27:06;29.17;;;14.57;;
13204;SDS011;6667;52.634;9.226;2024-02-21T04:29:32;29.23;;;15.17;;
13204;SDS011;6667;52.634;9.226;2024-02-21T04:31:59;25.17;;;14.33;;
13204;SDS011;6667;52.634;9.226;2024-02-21T04:34:27;27.77;;;14.27;;
13204;SDS011;6667;52.634;9.226;2024-02-21T04:36:55;31.03;;;14.80;;
13204;SDS011;6667;52.634;9.226;2024-02-21T04:39:22;25.33;;;15.73;;
13204;SDS011;6667;52.634;9.226;2024-02-21T04:41:50;26.73;;;15.00;;
13204;SDS011;6667;52.634;9.226;2024-02-21T04:44:17;28.97;;;16.47;;
13204;SDS011;6667;52.634;9.226;2024-02-21T04:46:46;38.30;;;14.87;;
13204;SDS011;6667;52.634;9.226;2024-02-21T04:49:13;31.43;;;15.57;;
13204;SDS011;6667;52.634;9.226;2024-02-21T04:51:40;26.97;;;15.23;;
13204;SDS011;6667;52.634;9.226;2024-02-21T04:54:07;24.07;;;14.50;;
13204;SDS011;6667;52.634;9.226;2024-02-21T04:56:34;32.47;;;16.17;;
13204;SDS011;6667;52.634;9.226;2024-02-21T04:59:02;30.90;;;15.80;;
13204;SDS011;6667;52.634;9.226;2024-02-21T05:01:29;28.37;;;15.43;;
13204;SDS011;6667;52.634;9.226;2024-02-21T05:03:56;25.63;;;15.13;;
13204;SDS011;6667;52.634;9.226;2024-02-21T05:06:22;30.67;;;15.90;;
13204;SDS011;6667;52.634;9.226;2024-02-21T05:08:49;32.07;;;16.20;;
13204;SDS011;6667;52.634;9.226;2024-02-21T05:11:16;29.67;;;14.37;;
13204;SDS011;6667;52.634;9.226;2024-02-21T05:13:42;31.87;;;15.00;;
13204;SDS011;6667;52.634;9.226;2024-02-21T05:16:10;31.33;;;15.90;;
13204;SDS011;6667;52.634;9.226;2024-02-21T05:18:37;25.60;;;14.47;;
13204;SDS011;6667;52.634;9.226;2024-02-21T05:21:04;27.00;;;13.83;;
13204;SDS011;6667;52.634;9.226;2024-02-21T05:23:30;30.77;;;15.50;;
13204;SDS011;6667;52.634;9.226;2024-02-21T05:25:57;27.67;;;15.43;;
13204;SDS011;6667;52.634;9.226;2024-02-21T05:28:24;31.10;;;15.87;;
13204;SDS011;6667;52.634;9.226;2024-02-21T05:30:50;28.10;;;15.07;;
13204;SDS011;6667;52.634;9.226;2024-02-21T05:33:18;33.40;;;15.23;;
13204;SDS011;6667;52.634;9.226;2024-02-21T05:35:47;31.40;;;14.73;;
13204;SDS011;6667;52.634;9.226;2024-02-21T05:38:14;26.90;;;14.50;;
13204;SDS011;6667;52.634;9.226;2024-02-21T05:40:40;27.00;;;14.10;;
13204;SDS011;6667;52.634;9.226;2024-02-21T05:43:07;29.07;;;14.57;;
13204;SDS011;6667;52.634;9.226;2024-02-21T05:45:34;26.70;;;14.53;;
13204;SDS011;6667;52.634;9.226;2024-02-21T05:48:01;23.33;;;14.37;;
13204;SDS011;6667;52.634;9.226;2024-02-21T05:50:29;26.70;;;14.47;;
13204;SDS011;6667;52.634;9.226;2024-02-21T05:52:57;30.07;;;13.90;;
13204;SDS011;6667;52.634;9.226;2024-02-21T05:55:24;34.83;;;16.00;;
13204;SDS011;6667;52.634;9.226;2024-02-21T05:57:53;30.10;;;14.87;;
13204;SDS011;6667;52.634;9.226;2024-02-21T06:00:20;31.90;;;16.37;;
13204;SDS011;6667;52.634;9.226;2024-02-21T06:02:46;27.07;;;14.90;;
13204;SDS011;6667;52.634;9.226;2024-02-21T06:05:13;27.97;;;14.53;;
13204;SDS011;6667;52.634;9.226;2024-02-21T06:07:41;25.07;;;15.83;;
13204;SDS011;6667;52.634;9.226;2024-02-21T06:10:07;27.77;;;14.77;;
13204;SDS011;6667;52.634;9.226;2024-02-21T06:12:34;31.37;;;15.20;;
13204;SDS011;6667;52.634;9.226;2024-02-21T06:15:01;31.47;;;15.77;;
13204;SDS011;6667;52.634;9.226;2024-02-21T06:17:28;31.60;;;15.93;;
13204;SDS011;6667;52.634;9.226;2024-02-21T06:19:55;38.67;;;16.20;;
13204;SDS011;6667;52.634;9.226;2024-02-21T06:22:22;29.67;;;15.43;;
13204;SDS011;6667;52.634;9.226;2024-02-21T06:24:50;27.37;;;15.70;;
13204;SDS011;6667;52.634;9.226;2024-02-21T06:27:18;39.90;;;17.17;;
13204;SDS011;6667;52.634;9.226;2024-02-21T06:29:44;27.10;;;15.87;;
13204;SDS011;6667;52.634;9.226;2024-02-21T06:32:11;35.90;;;18.17;;
13204;SDS011;6667;52.634;9.226;2024-02-21T06:34:38;28.40;;;16.20;;
13204;SDS011;6667;52.634;9.226;2024-02-21T06:37:04;29.73;;;16.80;;
13204;SDS011;6667;52.634;9.226;2024-02-21T06:39:31;30.93;;;15.43;;
13204;SDS011;6667;52.634;9.226;2024-02-21T06:41:59;34.60;;;15.27;;
13204;SDS011;6667;52.634;9.226;2024-02-21T06:44:25;28.53;;;15.77;;
13204;SDS011;6667;52.634;9.226;2024-02-21T06:46:53;31.40;;;18.70;;
13204;SDS011;6667;52.634;9.226;2024-02-21T06:49:20;32.83;;;17.03;;
13204;SDS011;6667;52.634;9.226;2024-02-21T06:51:46;33.43;;;16.60;;
13204;SDS011;6667;52.634;9.226;2024-02-21T06:54:13;28.63;;;16.37;;
13204;SDS011;6667;52.634;9.226;2024-02-21T06:56:40;25.43;;;16.00;;
13204;SDS011;6667;52.634;9.226;2024-02-21T06:59:08;29.10;;;16.33;;
13204;SDS011;6667;52.634;9.226;2024-02-21T07:01:35;31.50;;;16.73;;
13204;SDS011;6667;52.634;9.226;2024-02-21T07:04:02;31.57;;;17.17;;
13204;SDS011;6667;52.634;9.226;2024-02-21T07:06:28;35.80;;;17.77;;
13204;SDS011;6667;52.634;9.226;2024-02-21T07:08:56;31.63;;;17.80;;
13204;SDS011;6667;52.634;9.226;2024-02-21T07:11:23;37.87;;;17.83;;
13204;SDS011;6667;52.634;9.226;2024-02-21T07:13:49;34.03;;;16.63;;
13204;SDS011;6667;52.634;9.226;2024-02-21T07:16:17;29.37;;;17.47;;
13204;SDS011;6667;52.634;9.226;2024-02-21T07:18:44;31.27;;;17.63;;
13204;SDS011;6667;52.634;9.226;2024-02-21T07:21:10;32.33;;;18.63;;
13204;SDS011;6667;52.634;9.226;2024-02-21T07:23:40;35.43;;;16.67;;
13204;SDS011;6667;52.634;9.226;2024-02-21T07:26:06;29.30;;;17.60;;
13204;SDS011;6667;52.634;9.226;2024-02-21T07:28:33;31.77;;;17.07;;
13204;SDS011;6667;52.634;9.226;2024-02-21T07:31:00;32.87;;;17.73;;
13204;SDS011;6667;52.634;9.226;2024-02-21T07:33:28;30.50;;;16.90;;
13204;SDS011;6667;52.634;9.226;2024-02-21T07:35:55;32.97;;;17.57;;
13204;SDS011;6667;52.634;9.226;2024-02-21T07:38:22;33.37;;;17.60;;
13204;SDS011;6667;52.634;9.226;2024-02-21T07:40:49;39.87;;;19.53;;
13204;SDS011;6667;52.634;9.226;2024-02-21T07:43:15;39.10;;;19.17;;
13204;SDS011;6667;52.634;9.226;2024-02-21T07:45:42;33.63;;;18.27;;
13204;SDS011;6667;52.634;9.226;2024-02-21T07:48:08;34.00;;;18.60;;
13204;SDS011;6667;52.634;9.226;2024-02-21T07:50:37;29.80;;;17.20;;
13204;SDS011;6667;52.634;9.226;2024-02-21T07:53:04;33.73;;;18.50;;
13204;SDS011;6667;52.634;9.226;2024-02-21T07:55:30;35.43;;;18.33;;
13204;SDS011;6667;52.634;9.226;2024-02-21T07:57:57;31.63;;;17.97;;
13204;SDS011;6667;52.634;9.226;2024-02-21T08:00:23;33.43;;;17.90;;
13204;SDS011;6667;52.634;9.226;2024-02-21T08:02:50;35.43;;;20.30;;
13204;SDS011;6667;52.634;9.226;2024-02-21T08:05:17;37.20;;;20.37;;
13204;SDS011;6667;52.634;9.226;2024-02-21T08:07:45;31.77;;;18.27;;
13204;SDS011;6667;52.634;9.226;2024-02-21T08:10:11;39.57;;;19.23;;
13204;SDS011;6667;52.634;9.226;2024-02-21T08:12:38;33.60;;;19.17;;
13204;SDS011;6667;52.634;9.226;2024-02-21T08:15:05;36.93;;;19.27;;
13204;SDS011;6667;52.634;9.226;2024-02-21T08:17:33;31.47;;;19.43;;
13204;SDS011;6667;52.634;9.226;2024-02-21T08:19:59;39.80;;;18.53;;
13204;SDS011;6667;52.634;9.226;2024-02-21T08:22:26;35.10;;;17.40;;
13204;SDS011;6667;52.634;9.226;2024-02-21T08:24:54;34.40;;;17.97;;
13204;SDS011;6667;52.634;9.226;2024-02-21T08:27:21;36.33;;;18.60;;
13204;SDS011;6667;52.634;9.226;2024-02-21T08:29:47;33.90;;;19.13;;
13204;SDS011;6667;52.634;9.226;2024-02-21T08:32:14;35.33;;;18.80;;
13204;SDS011;6667;52.634;9.226;2024-02-21T08:34:41;32.37;;;16.87;;
13204;SDS011;6667;52.634;9.226;2024-02-21T08:37:07;32.23;;;17.13;;
13204;SDS011;6667;52.634;9.226;2024-02-21T08:39:35;31.53;;;17.73;;
13204;SDS011;6667;52.634;9.226;2024-02-21T08:42:04;33.37;;;17.90;;
13204;SDS011;6667;52.634;9.226;2024-02-21T08:44:31;27.37;;;17.10;;
13204;SDS011;6667;52.634;9.226;2024-02-21T08:46:57;35.83;;;17.90;;
13204;SDS011;6667;52.634;9.226;2024-02-21T08:49:24;30.20;;;17.40;;
13204;SDS011;6667;52.634;9.226;2024-02-21T08:51:53;33.87;;;17.37;;
13204;SDS011;6667;52.634;9.226;2024-02-21T08:54:20;27.27;;;16.17;;
13204;SDS011;6667;52.634;9.226;2024-02-21T08:56:46;34.17;;;17.73;;
13204;SDS011;6667;52.634;9.226;2024-02-21T08:59:14;33.30;;;18.33;;
13204;SDS011;6667;52.634;9.226;2024-02-21T09:01:41;33.90;;;17.60;;
13204;SDS011;6667;52.634;9.226;2024-02-21T09:04:08;32.93;;;17.87;;
13204;SDS011;6667;52.634;9.226;2024-02-21T09:06:35;29.70;;;17.43;;
13204;SDS011;6667;52.634;9.226;2024-02-21T09:09:04;28.53;;;16.70;;
13204;SDS011;6667;52.634;9.226;2024-02-21T09:11:33;32.73;;;18.27;;
13204;SDS011;6667;52.634;9.226;2024-02-21T09:13:59;39.93;;;18.47;;
13204;SDS011;6667;52.634;9.226;2024-02-21T09:16:30;26.17;;;15.07;;
13204;SDS011;6667;52.634;9.226;2024-02-21T09:18:57;31.07;;;16.37;;
13204;SDS011;6667;52.634;9.226;2024-02-21T09:21:23;31.67;;;16.33;;
13204;SDS011;6667;52.634;9.226;2024-02-21T09:23:50;30.10;;;17.37;;
13204;SDS011;6667;52.634;9.226;2024-02-21T09:26:16;28.17;;;16.20;;
13204;SDS011;6667;52.634;9.226;2024-02-21T09:28:43;35.03;;;17.83;;
13204;SDS011;6667;52.634;9.226;2024-02-21T09:31:10;29.23;;;18.10;;
13204;SDS011;6667;52.634;9.226;2024-02-21T09:33:38;34.13;;;17.27;;
13204;SDS011;6667;52.634;9.226;2024-02-21T09:36:05;32.07;;;16.23;;
13204;SDS011;6667;52.634;9.226;2024-02-21T09:38:32;28.30;;;15.83;;
13204;SDS011;6667;52.634;9.226;2024-02-21T09:40:59;27.30;;;15.67;;
13204;SDS011;6667;52.634;9.226;2024-02-21T09:43:30;27.43;;;14.97;;
13204;SDS011;6667;52.634;9.226;2024-02-21T09:45:58;31.03;;;14.90;;
13204;SDS011;6667;52.634;9.226;2024-02-21T09:48:30;25.07;;;14.10;;
13204;SDS011;6667;52.634;9.226;2024-02-21T09:51:07;23.33;;;14.00;;
13204;SDS011;6667;52.634;9.226;2024-02-21T09:53:37;24.17;;;13.47;;
13204;SDS011;6667;52.634;9.226;2024-02-21T09:56:04;23.30;;;12.40;;
13204;SDS011;6667;52.634;9.226;2024-02-21T09:58:33;22.23;;;13.17;;
13204;SDS011;6667;52.634;9.226;2024-02-21T10:01:00;21.30;;;12.67;;
13204;SDS011;6667;52.634;9.226;2024-02-21T10:03:27;21.70;;;12.33;;
13204;SDS011;6667;52.634;9.226;2024-02-21T10:05:53;19.87;;;10.70;;
13204;SDS011;6667;52.634;9.226;2024-02-21T10:08:21;18.73;;;11.47;;
13204;SDS011;6667;52.634;9.226;2024-02-21T10:10:48;21.57;;;12.17;;
13204;SDS011;6667;52.634;9.226;2024-02-21T10:13:24;19.47;;;11.03;;
13204;SDS011;6667;52.634;9.226;2024-02-21T10:16:02;19.30;;;10.20;;
13204;SDS011;6667;52.634;9.226;2024-02-21T10:18:32;19.17;;;11.00;;
13204;SDS011;6667;52.634;9.226;2024-02-21T10:21:00;23.73;;;9.80;;
13204;SDS011;6667;52.634;9.226;2024-02-21T10:23:29;15.03;;;9.47;;
13204;SDS011;6667;52.634;9.226;2024-02-21T10:26:07;20.67;;;11.00;;
13204;SDS011;6667;52.634;9.226;2024-02-21T10:28:39;18.93;;;10.30;;
13204;SDS011;6667;52.634;9.226;2024-02-21T10:31:08;15.50;;;9.50;;
13204;SDS011;6667;52.634;9.226;2024-02-21T10:33:35;18.57;;;10.30;;
13204;SDS011;6667;52.634;9.226;2024-02-21T10:36:06;16.97;;;10.00;;
13204;SDS011;6667;52.634;9.226;2024-02-21T10:38:55;17.00;;;9.60;;
13204;SDS011;6667;52.634;9.226;2024-02-21T10:41:22;17.13;;;9.73;;
13204;SDS011;6667;52.634;9.226;2024-02-21T10:43:50;20.13;;;10.47;;
13204;SDS011;6667;52.634;9.226;2024-02-21T10:46:19;23.93;;;11.27;;
13204;SDS011;6667;52.634;9.226;2024-02-21T10:48:46;13.40;;;8.43;;
13204;SDS011;6667;52.634;9.226;2024-02-21T10:51:14;22.20;;;10.37;;
13204;SDS011;6667;52.634;9.226;2024-02-21T10:53:45;20.17;;;10.80;;
13204;SDS011;6667;52.634;9.226;2024-02-21T10:56:29;14.90;;;10.13;;
13204;SDS011;6667;52.634;9.226;2024-02-21T10:59:00;15.70;;;9.37;;
13204;SDS011;6667;52.634;9.226;2024-02-21T11:01:28;15.20;;;8.67;;
13204;SDS011;6667;52.634;9.226;2024-02-21T11:03:57;15.20;;;8.40;;
13204;SDS011;6667;52.634;9.226;2024-02-21T11:06:27;15.50;;;8.33;;
13204;SDS011;6667;52.634;9.226;2024-02-21T11:09:02;13.17;;;7.97;;
13204;SDS011;6667;52.634;9.226;2024-02-21T11:11:31;11.37;;;6.30;;
13204;SDS011;6667;52.634;9.226;2024-02-21T11:14:09;11.43;;;6.33;;
13204;SDS011;6667;52.634;9.226;2024-02-21T11:16:39;9.37;;;5.60;;
13204;SDS011;6667;52.634;9.226;2024-02-21T11:19:07;11.57;;;5.70;;
13204;SDS011;6667;52.634;9.226;2024-02-21T11:21:36;13.73;;;5.47;;
13204;SDS011;6667;52.634;9.226;2024-02-21T11:24:04;9.77;;;4.90;;
13204;SDS011;6667;52.634;9.226;2024-02-21T11:26:32;9.13;;;4.77;;
13204;SDS011;6667;52.634;9.226;2024-02-21T11:28:59;13.17;;;4.90;;
13204;SDS011;6667;52.634;9.226;2024-02-21T11:31:27;8.40;;;4.77;;
13204;SDS011;6667;52.634;9.226;2024-02-21T11:34:06;7.77;;;4.47;;
13204;SDS011;6667;52.634;9.226;2024-02-21T11:39:38;8.17;;;4.10;;
13204;SDS011;6667;52.634;9.226;2024-02-21T11:42:08;8.00;;;4.43;;
13204;SDS011;6667;52.634;9.226;2024-02-21T11:44:36;9.13;;;4.43;;
13204;SDS011;6667;52.634;9.226;2024-02-21T11:47:04;6.37;;;4.07;;
13204;SDS011;6667;52.634;9.226;2024-02-21T11:49:35;9.93;;;4.83;;
13204;SDS011;6667;52.634;9.226;2024-02-21T11:52:03;8.27;;;4.10;;
13204;SDS011;6667;52.634;9.226;2024-02-21T11:54:31;8.77;;;4.10;;
13204;SDS011;6667;52.634;9.226;2024-02-21T11:56:58;8.53;;;4.27;;
13204;SDS011;6667;52.634;9.226;2024-02-21T11:59:26;6.63;;;4.57;;
13204;SDS011;6667;52.634;9.226;2024-02-21T12:01:55;6.83;;;3.70;;
13204;SDS011;6667;52.634;9.226;2024-02-21T12:04:22;7.17;;;3.80;;
13204;SDS011;6667;52.634;9.226;2024-02-21T12:07:05;10.27;;;3.80;;
13204;SDS011;6667;52.634;9.226;2024-02-21T12:09:33;7.87;;;4.17;;
13204;SDS011;6667;52.634;9.226;2024-02-21T12:12:01;6.13;;;4.07;;
13204;SDS011;6667;52.634;9.226;2024-02-21T12:14:31;6.63;;;3.67;;
13204;SDS011;6667;52.634;9.226;2024-02-21T12:16:59;7.93;;;3.80;;
13204;SDS011;6667;52.634;9.226;2024-02-21T12:19:29;6.90;;;4.47;;
13204;SDS011;6667;52.634;9.226;2024-02-21T12:21:56;6.23;;;4.10;;
13204;SDS011;6667;52.634;9.226;2024-02-21T12:24:25;6.70;;;4.17;;
13204;SDS011;6667;52.634;9.226;2024-02-21T12:26:53;6.87;;;3.90;;
13204;SDS011;6667;52.634;9.226;2024-02-21T12:29:21;4.43;;;3.30;;
13204;SDS011;6667;52.634;9.226;2024-02-21T12:31:51;5.33;;;3.90;;
13204;SDS011;6667;52.634;9.226;2024-02-21T12:34:19;7.97;;;3.90;;
13204;SDS011;6667;52.634;9.226;2024-02-21T12:36:47;5.13;;;4.33;;
13204;SDS011;6667;52.634;9.226;2024-02-21T12:39:13;6.33;;;4.03;;
13204;SDS011;6667;52.634;9.226;2024-02-21T12:41:41;7.67;;;4.10;;
13204;SDS011;6667;52.634;9.226;2024-02-21T12:44:09;5.73;;;3.97;;
13204;SDS011;6667;52.634;9.226;2024-02-21T12:46:37;9.67;;;4.27;;
13204;SDS011;6667;52.634;9.226;2024-02-21T12:49:06;6.07;;;4.23;;
13204;SDS011;6667;52.634;9.226;2024-02-21T12:51:33;7.00;;;4.17;;
13204;SDS011;6667;52.634;9.226;2024-02-21T12:54:00;8.37;;;4.10;;
13204;SDS011;6667;52.634;9.226;2024-02-21T12:56:28;5.90;;;3.60;;
13204;SDS011;6667;52.634;9.226;2024-02-21T12:59:04;9.67;;;4.00;;
13204;SDS011;6667;52.634;9.226;2024-02-21T13:01:32;6.17;;;4.17;;
13204;SDS011;6667;52.634;9.226;2024-02-21T13:03:59;8.83;;;4.07;;
13204;SDS011;6667;52.634;9.226;2024-02-21T13:06:28;5.57;;;4.20;;
13204;SDS011;6667;52.634;9.226;2024-02-21T13:08:55;6.90;;;4.33;;
13204;SDS011;6667;52.634;9.226;2024-02-21T13:11:32;6.93;;;4.57;;
13204;SDS011;6667;52.634;9.226;2024-02-21T13:14:13;8.27;;;5.20;;
13204;SDS011;6667;52.634;9.226;2024-02-21T13:20:09;11.07;;;5.50;;
13204;SDS011;6667;52.634;9.226;2024-02-21T13:22:38;6.67;;;4.43;;
13204;SDS011;6667;52.634;9.226;2024-02-21T13:25:05;10.30;;;5.90;;
13204;SDS011;6667;52.634;9.226;2024-02-21T13:27:33;12.73;;;5.50;;
13204;SDS011;6667;52.634;9.226;2024-02-21T13:30:01;13.00;;;5.97;;
13204;SDS011;6667;52.634;9.226;2024-02-21T13:32:31;9.23;;;5.23;;
13204;SDS011;6667;52.634;9.226;2024-02-21T13:34:58;11.07;;;6.17;;
13204;SDS011;6667;52.634;9.226;2024-02-21T13:37:26;10.23;;;5.60;;
13204;SDS011;6667;52.634;9.226;2024-02-21T13:39:55;10.37;;;5.10;;
13204;SDS011;6667;52.634;9.226;2024-02-21T13:42:22;10.57;;;5.97;;
13204;SDS011;6667;52.634;9.226;2024-02-21T13:44:52;11.17;;;5.80;;
13204;SDS011;6667;52.634;9.226;2024-02-21T13:47:20;10.23;;;5.90;;
13204;SDS011;6667;52.634;9.226;2024-02-21T13:49:47;9.23;;;6.00;;
13204;SDS011;6667;52.634;9.226;2024-02-21T13:52:23;10.90;;;5.60;;
13204;SDS011;6667;52.634;9.226;2024-02-21T13:54:51;10.90;;;5.63;;
13204;SDS011;6667;52.634;9.226;2024-02-21T13:57:19;12.57;;;6.27;;
13204;SDS011;6667;52.634;9.226;2024-02-21T13:59:50;12.10;;;6.93;;
13204;SDS011;6667;52.634;9.226;2024-02-21T14:02:18;10.43;;;5.97;;
13204;SDS011;6667;52.634;9.226;2024-02-21T14:04:45;10.60;;;5.63;;
13204;SDS011;6667;52.634;9.226;2024-02-21T14:07:12;9.67;;;6.10;;
13204;SDS011;6667;52.634;9.226;2024-02-21T14:09:38;14.23;;;5.63;;
13204;SDS011;6667;52.634;9.226;2024-02-21T14:12:06;12.47;;;5.80;;
13204;SDS011;6667;52.634;9.226;2024-02-21T14:14:36;9.83;;;5.07;;
13204;SDS011;6667;52.634;9.226;2024-02-21T14:17:03;11.23;;;5.53;;
13204;SDS011;6667;52.634;9.226;2024-02-21T14:19:30;10.23;;;5.03;;
13204;SDS011;6667;52.634;9.226;2024-02-21T14:21:57;9.60;;;4.73;;
13204;SDS011;6667;52.634;9.226;2024-02-21T14:24:24;9.63;;;5.37;;
13204;SDS011;6667;52.634;9.226;2024-02-21T14:26:52;8.03;;;4.87;;
13204;SDS011;6667;52.634;9.226;2024-02-21T14:29:20;11.07;;;5.83;;
13204;SDS011;6667;52.634;9.226;2024-02-21T14:31:48;8.90;;;5.00;;
13204;SDS011;6667;52.634;9.226;2024-02-21T14:34:21;7.90;;;4.80;;
13204;SDS011;6667;52.634;9.226;2024-02-21T14:36:48;11.50;;;4.63;;
13204;SDS011;6667;52.634;9.226;2024-02-21T14:39:14;5.60;;;4.00;;
13204;SDS011;6667;52.634;9.226;2024-02-21T14:41:41;9.50;;;5.63;;
13204;SDS011;6667;52.634;9.226;2024-02-21T14:44:08;7.70;;;3.97;;
13204;SDS011;6667;52.634;9.226;2024-02-21T14:46:36;10.03;;;3.77;;
13204;SDS011;6667;52.634;9.226;2024-02-21T14:49:05;7.53;;;3.73;;
13204;SDS011;6667;52.634;9.226;2024-02-21T14:51:48;7.50;;;3.43;;